sensor_id;sensor_type;location;lat;lon;timestamp;P1;durP1;ratioP1;P2;durP2;ratioP2
78344;SDS011;67620;51.134;6.548;2023-04-01T00:00:27;2.85;;;0.80;;
78344;SDS011;67620;51.134;6.548;2023-04-01T00:02:53;4.22;;;0.60;;
78344;SDS011;67620;51.134;6.548;2023-04-01T00:05:19;1.38;;;0.43;;
78344;SDS011;67620;51.134;6.548;2023-04-01T00:07:44;2.28;;;0.50;;
78344;SDS011;67620;51.134;6.548;2023-04-01T00:10:12;2.20;;;0.40;;
78344;SDS011;67620;51.134;6.548;2023-04-01T00:12:38;2.70;;;0.50;;
78344;SDS011;67620;51.134;6.548;2023-04-01T00:15:05;3.38;;;0.50;;
78344;SDS011;67620;51.134;6.548;2023-04-01T00:17:32;2.92;;;0.38;;
78344;SDS011;67620;51.134;6.548;2023-04-01T00:19:58;2.33;;;0.50;;
78344;SDS011;67620;51.134;6.548;2023-04-01T00:22:24;2.13;;;0.38;;
78344;SDS011;67620;51.134;6.548;2023-04-01T00:24:51;3.08;;;0.40;;
78344;SDS011;67620;51.134;6.548;2023-04-01T00:27:17;2.22;;;0.55;;
78344;SDS011;67620;51.134;6.548;2023-04-01T00:29:43;1.02;;;0.30;;
78344;SDS011;67620;51.134;6.548;2023-04-01T00:32:10;2.03;;;0.60;;
78344;SDS011;67620;51.134;6.548;2023-04-01T00:37:02;4.68;;;0.70;;
78344;SDS011;67620;51.134;6.548;2023-04-01T00:39:29;5.10;;;0.50;;
78344;SDS011;67620;51.134;6.548;2023-04-01T00:41:56;2.15;;;0.45;;
78344;SDS011;67620;51.134;6.548;2023-04-01T00:44:26;1.85;;;0.47;;
78344;SDS011;67620;51.134;6.548;2023-04-01T00:46:53;3.25;;;0.70;;
78344;SDS011;67620;51.134;6.548;2023-04-01T00:49:20;1.92;;;0.57;;
78344;SDS011;67620;51.134;6.548;2023-04-01T00:51:50;2.85;;;0.50;;
78344;SDS011;67620;51.134;6.548;2023-04-01T00:54:19;5.15;;;0.55;;
78344;SDS011;67620;51.134;6.548;2023-04-01T00:56:47;2.65;;;0.57;;
78344;SDS011;67620;51.134;6.548;2023-04-01T00:59:18;2.92;;;0.50;;
78344;SDS011;67620;51.134;6.548;2023-04-01T01:01:54;3.72;;;0.45;;
78344;SDS011;67620;51.134;6.548;2023-04-01T01:04:27;4.70;;;0.60;;
78344;SDS011;67620;51.134;6.548;2023-04-01T01:07:10;2.42;;;0.40;;
78344;SDS011;67620;51.134;6.548;2023-04-01T01:09:52;3.03;;;0.52;;
78344;SDS011;67620;51.134;6.548;2023-04-01T01:12:25;3.17;;;0.40;;
78344;SDS011;67620;51.134;6.548;2023-04-01T01:15:13;0.73;;;0.20;;
78344;SDS011;67620;51.134;6.548;2023-04-01T01:18:03;1.67;;;0.55;;
78344;SDS011;67620;51.134;6.548;2023-04-01T01:23:30;4.18;;;0.68;;
78344;SDS011;67620;51.134;6.548;2023-04-01T01:29:25;1.13;;;0.22;;
78344;SDS011;67620;51.134;6.548;2023-04-01T01:35:20;2.78;;;0.30;;
78344;SDS011;67620;51.134;6.548;2023-04-01T01:37:47;1.83;;;0.30;;
78344;SDS011;67620;51.134;6.548;2023-04-01T01:40:17;1.02;;;0.30;;
78344;SDS011;67620;51.134;6.548;2023-04-01T01:42:46;2.00;;;0.47;;
78344;SDS011;67620;51.134;6.548;2023-04-01T01:45:15;1.73;;;0.30;;
78344;SDS011;67620;51.134;6.548;2023-04-01T01:47:44;0.70;;;0.30;;
78344;SDS011;67620;51.134;6.548;2023-04-01T01:50:11;2.28;;;0.68;;
78344;SDS011;67620;51.134;6.548;2023-04-01T01:52:38;1.38;;;0.60;;
78344;SDS011;67620;51.134;6.548;2023-04-01T01:55:22;2.58;;;0.47;;
78344;SDS011;67620;51.134;6.548;2023-04-01T01:58:51;3.70;;;0.47;;
78344;SDS011;67620;51.134;6.548;2023-04-01T02:01:01;0.93;;;0.35;;
78344;SDS011;67620;51.134;6.548;2023-04-01T02:03:30;2.33;;;0.47;;
78344;SDS011;67620;51.134;6.548;2023-04-01T02:05:59;1.13;;;0.30;;
78344;SDS011;67620;51.134;6.548;2023-04-01T02:10:56;2.58;;;0.77;;
78344;SDS011;67620;51.134;6.548;2023-04-01T02:13:27;3.50;;;1.00;;
78344;SDS011;67620;51.134;6.548;2023-04-01T02:19:16;2.45;;;0.57;;
78344;SDS011;67620;51.134;6.548;2023-04-01T02:21:47;1.45;;;0.40;;
78344;SDS011;67620;51.134;6.548;2023-04-01T02:24:20;1.27;;;0.30;;
78344;SDS011;67620;51.134;6.548;2023-04-01T02:26:49;1.20;;;0.40;;
78344;SDS011;67620;51.134;6.548;2023-04-01T02:29:16;2.80;;;0.50;;
78344;SDS011;67620;51.134;6.548;2023-04-01T02:31:47;1.90;;;0.40;;
78344;SDS011;67620;51.134;6.548;2023-04-01T02:34:15;3.28;;;0.40;;
78344;SDS011;67620;51.134;6.548;2023-04-01T02:36:40;2.28;;;0.43;;
78344;SDS011;67620;51.134;6.548;2023-04-01T02:39:07;1.27;;;0.35;;
78344;SDS011;67620;51.134;6.548;2023-04-01T02:41:38;1.58;;;0.45;;
78344;SDS011;67620;51.134;6.548;2023-04-01T02:44:05;1.52;;;0.30;;
78344;SDS011;67620;51.134;6.548;2023-04-01T02:46:32;1.90;;;0.28;;
78344;SDS011;67620;51.134;6.548;2023-04-01T02:48:57;0.90;;;0.30;;
78344;SDS011;67620;51.134;6.548;2023-04-01T02:51:23;0.85;;;0.30;;
78344;SDS011;67620;51.134;6.548;2023-04-01T02:53:50;0.17;;;0.08;;
78344;SDS011;67620;51.134;6.548;2023-04-01T02:56:15;2.58;;;0.43;;
78344;SDS011;67620;51.134;6.548;2023-04-01T02:58:41;0.82;;;0.13;;
78344;SDS011;67620;51.134;6.548;2023-04-01T03:01:06;0.88;;;0.20;;
78344;SDS011;67620;51.134;6.548;2023-04-01T03:03:33;3.45;;;0.40;;
78344;SDS011;67620;51.134;6.548;2023-04-01T03:06:04;1.05;;;0.20;;
78344;SDS011;67620;51.134;6.548;2023-04-01T03:08:30;1.17;;;0.10;;
78344;SDS011;67620;51.134;6.548;2023-04-01T03:10:56;2.05;;;0.20;;
78344;SDS011;67620;51.134;6.548;2023-04-01T03:13:21;2.28;;;0.30;;
78344;SDS011;67620;51.134;6.548;2023-04-01T03:15:47;0.45;;;0.20;;
78344;SDS011;67620;51.134;6.548;2023-04-01T03:18:12;1.92;;;0.30;;
78344;SDS011;67620;51.134;6.548;2023-04-01T03:20:38;1.35;;;0.25;;
78344;SDS011;67620;51.134;6.548;2023-04-01T03:23:03;1.05;;;0.15;;
78344;SDS011;67620;51.134;6.548;2023-04-01T03:25:29;0.32;;;0.17;;
78344;SDS011;67620;51.134;6.548;2023-04-01T03:27:55;0.20;;;0.10;;
78344;SDS011;67620;51.134;6.548;2023-04-01T03:30:21;3.25;;;0.32;;
78344;SDS011;67620;51.134;6.548;2023-04-01T03:32:46;1.17;;;0.28;;
78344;SDS011;67620;51.134;6.548;2023-04-01T03:35:12;0.82;;;0.28;;
78344;SDS011;67620;51.134;6.548;2023-04-01T03:37:37;0.82;;;0.30;;
78344;SDS011;67620;51.134;6.548;2023-04-01T03:40:03;0.30;;;0.20;;
78344;SDS011;67620;51.134;6.548;2023-04-01T03:42:30;2.25;;;0.50;;
78344;SDS011;67620;51.134;6.548;2023-04-01T03:44:56;0.68;;;0.20;;
78344;SDS011;67620;51.134;6.548;2023-04-01T03:47:21;0.17;;;0.17;;
78344;SDS011;67620;51.134;6.548;2023-04-01T03:49:47;1.60;;;0.40;;
78344;SDS011;67620;51.134;6.548;2023-04-01T03:52:12;0.50;;;0.20;;
78344;SDS011;67620;51.134;6.548;2023-04-01T03:54:38;2.78;;;0.30;;
78344;SDS011;67620;51.134;6.548;2023-04-01T03:57:04;0.73;;;0.20;;
78344;SDS011;67620;51.134;6.548;2023-04-01T03:59:30;0.57;;;0.22;;
78344;SDS011;67620;51.134;6.548;2023-04-01T04:01:55;1.20;;;0.30;;
78344;SDS011;67620;51.134;6.548;2023-04-01T04:04:21;2.13;;;0.28;;
78344;SDS011;67620;51.134;6.548;2023-04-01T04:06:46;2.08;;;0.50;;
78344;SDS011;67620;51.134;6.548;2023-04-01T04:11:38;0.70;;;0.30;;
78344;SDS011;67620;51.134;6.548;2023-04-01T04:14:04;1.30;;;0.40;;
78344;SDS011;67620;51.134;6.548;2023-04-01T04:16:30;0.43;;;0.20;;
78344;SDS011;67620;51.134;6.548;2023-04-01T04:18:55;0.70;;;0.47;;
78344;SDS011;67620;51.134;6.548;2023-04-01T04:21:21;0.93;;;0.40;;
78344;SDS011;67620;51.134;6.548;2023-04-01T04:23:47;1.95;;;0.30;;
78344;SDS011;67620;51.134;6.548;2023-04-01T04:26:13;0.70;;;0.32;;
78344;SDS011;67620;51.134;6.548;2023-04-01T04:28:39;3.13;;;0.90;;
78344;SDS011;67620;51.134;6.548;2023-04-01T04:31:06;1.40;;;0.35;;
78344;SDS011;67620;51.134;6.548;2023-04-01T04:33:32;1.67;;;0.43;;
78344;SDS011;67620;51.134;6.548;2023-04-01T04:35:58;2.38;;;0.52;;
78344;SDS011;67620;51.134;6.548;2023-04-01T04:38:25;0.93;;;0.50;;
78344;SDS011;67620;51.134;6.548;2023-04-01T04:40:51;5.32;;;0.60;;
78344;SDS011;67620;51.134;6.548;2023-04-01T04:43:17;1.60;;;0.50;;
78344;SDS011;67620;51.134;6.548;2023-04-01T04:45:43;1.58;;;0.30;;
78344;SDS011;67620;51.134;6.548;2023-04-01T04:48:10;1.65;;;0.70;;
78344;SDS011;67620;51.134;6.548;2023-04-01T04:50:43;1.00;;;0.60;;
78344;SDS011;67620;51.134;6.548;2023-04-01T04:53:13;1.75;;;0.60;;
78344;SDS011;67620;51.134;6.548;2023-04-01T04:55:44;1.55;;;0.50;;
78344;SDS011;67620;51.134;6.548;2023-04-01T04:58:13;2.00;;;0.70;;
78344;SDS011;67620;51.134;6.548;2023-04-01T05:00:39;2.92;;;0.80;;
78344;SDS011;67620;51.134;6.548;2023-04-01T05:03:05;2.58;;;1.00;;
78344;SDS011;67620;51.134;6.548;2023-04-01T05:05:30;1.67;;;0.60;;
78344;SDS011;67620;51.134;6.548;2023-04-01T05:07:56;2.63;;;0.77;;
78344;SDS011;67620;51.134;6.548;2023-04-01T05:10:21;0.98;;;0.60;;
78344;SDS011;67620;51.134;6.548;2023-04-01T05:12:47;1.70;;;0.70;;
78344;SDS011;67620;51.134;6.548;2023-04-01T05:15:12;1.40;;;0.75;;
78344;SDS011;67620;51.134;6.548;2023-04-01T05:17:38;1.20;;;0.73;;
78344;SDS011;67620;51.134;6.548;2023-04-01T05:20:04;1.30;;;0.90;;
78344;SDS011;67620;51.134;6.548;2023-04-01T05:22:30;2.42;;;1.00;;
78344;SDS011;67620;51.134;6.548;2023-04-01T05:24:56;1.88;;;0.90;;
78344;SDS011;67620;51.134;6.548;2023-04-01T05:27:22;1.70;;;0.93;;
78344;SDS011;67620;51.134;6.548;2023-04-01T05:29:47;1.35;;;0.75;;
78344;SDS011;67620;51.134;6.548;2023-04-01T05:32:13;3.78;;;1.10;;
78344;SDS011;67620;51.134;6.548;2023-04-01T05:34:38;3.50;;;1.33;;
78344;SDS011;67620;51.134;6.548;2023-04-01T05:37:04;3.60;;;1.63;;
78344;SDS011;67620;51.134;6.548;2023-04-01T05:39:29;2.10;;;1.23;;
78344;SDS011;67620;51.134;6.548;2023-04-01T05:41:55;2.92;;;1.67;;
78344;SDS011;67620;51.134;6.548;2023-04-01T05:44:20;4.63;;;1.88;;
78344;SDS011;67620;51.134;6.548;2023-04-01T05:46:46;3.63;;;1.67;;
78344;SDS011;67620;51.134;6.548;2023-04-01T05:49:11;2.05;;;1.25;;
78344;SDS011;67620;51.134;6.548;2023-04-01T05:51:37;1.95;;;1.35;;
78344;SDS011;67620;51.134;6.548;2023-04-01T05:54:04;2.70;;;1.60;;
78344;SDS011;67620;51.134;6.548;2023-04-01T05:56:30;2.55;;;1.50;;
78344;SDS011;67620;51.134;6.548;2023-04-01T05:58:56;2.63;;;1.40;;
78344;SDS011;67620;51.134;6.548;2023-04-01T06:01:21;2.30;;;1.40;;
78344;SDS011;67620;51.134;6.548;2023-04-01T06:03:47;2.40;;;1.67;;
78344;SDS011;67620;51.134;6.548;2023-04-01T06:06:21;2.70;;;1.52;;
78344;SDS011;67620;51.134;6.548;2023-04-01T06:08:49;2.25;;;1.48;;
78344;SDS011;67620;51.134;6.548;2023-04-01T06:22:17;2.70;;;1.95;;
78344;SDS011;67620;51.134;6.548;2023-04-01T06:27:54;2.88;;;1.45;;
78344;SDS011;67620;51.134;6.548;2023-04-01T06:30:40;2.50;;;1.35;;
78344;SDS011;67620;51.134;6.548;2023-04-01T06:38:14;2.33;;;1.42;;
78344;SDS011;67620;51.134;6.548;2023-04-01T06:46:45;2.17;;;1.25;;
78344;SDS011;67620;51.134;6.548;2023-04-01T06:49:21;3.55;;;2.00;;
78344;SDS011;67620;51.134;6.548;2023-04-01T06:55:24;2.80;;;1.77;;
78344;SDS011;67620;51.134;6.548;2023-04-01T06:58:02;2.30;;;1.60;;
78344;SDS011;67620;51.134;6.548;2023-04-01T07:00:38;2.97;;;1.75;;
78344;SDS011;67620;51.134;6.548;2023-04-01T07:03:26;2.95;;;1.80;;
78344;SDS011;67620;51.134;6.548;2023-04-01T07:05:59;3.25;;;1.70;;
78344;SDS011;67620;51.134;6.548;2023-04-01T07:08:29;2.70;;;1.80;;
78344;SDS011;67620;51.134;6.548;2023-04-01T07:10:58;4.18;;;2.10;;
78344;SDS011;67620;51.134;6.548;2023-04-01T07:21:20;4.78;;;1.70;;
78344;SDS011;67620;51.134;6.548;2023-04-01T07:24:03;4.32;;;2.10;;
78344;SDS011;67620;51.134;6.548;2023-04-01T07:26:34;3.90;;;2.08;;
78344;SDS011;67620;51.134;6.548;2023-04-01T07:28:59;3.03;;;2.10;;
78344;SDS011;67620;51.134;6.548;2023-04-01T07:34:12;3.83;;;2.45;;
78344;SDS011;67620;51.134;6.548;2023-04-01T07:45:11;2.88;;;1.95;;
78344;SDS011;67620;51.134;6.548;2023-04-01T07:50:48;3.13;;;1.80;;
78344;SDS011;67620;51.134;6.548;2023-04-01T07:53:49;3.20;;;2.00;;
78344;SDS011;67620;51.134;6.548;2023-04-01T08:02:19;2.67;;;1.80;;
78344;SDS011;67620;51.134;6.548;2023-04-01T08:05:12;3.55;;;2.25;;
78344;SDS011;67620;51.134;6.548;2023-04-01T08:07:45;3.45;;;2.38;;
78344;SDS011;67620;51.134;6.548;2023-04-01T08:18:46;3.60;;;1.90;;
78344;SDS011;67620;51.134;6.548;2023-04-01T08:21:28;3.17;;;2.28;;
78344;SDS011;67620;51.134;6.548;2023-04-01T08:24:00;2.80;;;1.70;;
78344;SDS011;67620;51.134;6.548;2023-04-01T08:26:37;2.90;;;1.63;;
78344;SDS011;67620;51.134;6.548;2023-04-01T08:29:16;2.50;;;1.50;;
78344;SDS011;67620;51.134;6.548;2023-04-01T08:31:57;2.95;;;2.00;;
78344;SDS011;67620;51.134;6.548;2023-04-01T08:34:30;3.38;;;1.58;;
78344;SDS011;67620;51.134;6.548;2023-04-01T08:39:40;3.08;;;2.03;;
78344;SDS011;67620;51.134;6.548;2023-04-01T08:44:59;7.43;;;3.90;;
78344;SDS011;67620;51.134;6.548;2023-04-01T08:53:35;2.78;;;1.95;;
78344;SDS011;67620;51.134;6.548;2023-04-01T08:56:14;6.13;;;4.32;;
78344;SDS011;67620;51.134;6.548;2023-04-01T09:01:32;2.35;;;1.85;;
78344;SDS011;67620;51.134;6.548;2023-04-01T09:04:25;6.22;;;3.30;;
78344;SDS011;67620;51.134;6.548;2023-04-01T09:07:29;5.20;;;3.33;;
78344;SDS011;67620;51.134;6.548;2023-04-01T09:10:23;4.28;;;2.92;;
78344;SDS011;67620;51.134;6.548;2023-04-01T09:19:05;4.43;;;2.83;;
78344;SDS011;67620;51.134;6.548;2023-04-01T09:25:21;4.35;;;3.10;;
78344;SDS011;67620;51.134;6.548;2023-04-01T09:28:37;4.60;;;2.85;;
78344;SDS011;67620;51.134;6.548;2023-04-01T09:30:41;5.25;;;4.00;;
78344;SDS011;67620;51.134;6.548;2023-04-01T09:36:33;4.30;;;3.90;;
78344;SDS011;67620;51.134;6.548;2023-04-01T09:39:24;5.78;;;3.90;;
78344;SDS011;67620;51.134;6.548;2023-04-01T09:42:07;4.97;;;3.65;;
78344;SDS011;67620;51.134;6.548;2023-04-01T09:44:48;4.97;;;4.00;;
78344;SDS011;67620;51.134;6.548;2023-04-01T09:49:53;5.80;;;4.28;;
78344;SDS011;67620;51.134;6.548;2023-04-01T09:57:56;3.45;;;2.85;;
78344;SDS011;67620;51.134;6.548;2023-04-01T10:00:52;3.53;;;2.45;;
78344;SDS011;67620;51.134;6.548;2023-04-01T10:06:41;2.85;;;2.30;;
78344;SDS011;67620;51.134;6.548;2023-04-01T10:26:18;8.00;;;5.00;;
78344;SDS011;67620;51.134;6.548;2023-04-01T10:29:24;3.70;;;3.00;;
78344;SDS011;67620;51.134;6.548;2023-04-01T10:35:09;4.03;;;3.35;;
78344;SDS011;67620;51.134;6.548;2023-04-01T10:38:06;6.13;;;3.63;;
78344;SDS011;67620;51.134;6.548;2023-04-01T10:40:45;4.80;;;3.85;;
78344;SDS011;67620;51.134;6.548;2023-04-01T10:51:56;4.43;;;3.47;;
78344;SDS011;67620;51.134;6.548;2023-04-01T11:05:29;7.70;;;4.90;;
78344;SDS011;67620;51.134;6.548;2023-04-01T11:11:16;6.05;;;4.80;;
78344;SDS011;67620;51.134;6.548;2023-04-01T11:19:32;6.88;;;4.70;;
78344;SDS011;67620;51.134;6.548;2023-04-01T11:22:08;6.80;;;4.70;;
78344;SDS011;67620;51.134;6.548;2023-04-01T11:30:52;7.82;;;5.85;;
78344;SDS011;67620;51.134;6.548;2023-04-01T11:37:02;6.57;;;4.65;;
78344;SDS011;67620;51.134;6.548;2023-04-01T11:39:37;6.55;;;4.70;;
78344;SDS011;67620;51.134;6.548;2023-04-01T11:51:00;5.25;;;3.95;;
78344;SDS011;67620;51.134;6.548;2023-04-01T11:53:53;6.05;;;4.07;;
78344;SDS011;67620;51.134;6.548;2023-04-01T12:02:12;4.30;;;3.60;;
78344;SDS011;67620;51.134;6.548;2023-04-01T12:07:24;5.00;;;3.80;;
78344;SDS011;67620;51.134;6.548;2023-04-01T12:10:18;5.07;;;3.83;;
78344;SDS011;67620;51.134;6.548;2023-04-01T12:15:55;5.85;;;3.75;;
78344;SDS011;67620;51.134;6.548;2023-04-01T12:18:53;4.78;;;3.78;;
78344;SDS011;67620;51.134;6.548;2023-04-01T12:21:28;5.40;;;4.07;;
78344;SDS011;67620;51.134;6.548;2023-04-01T12:27:12;5.35;;;4.10;;
78344;SDS011;67620;51.134;6.548;2023-04-01T12:35:55;5.10;;;4.00;;
78344;SDS011;67620;51.134;6.548;2023-04-01T12:38:36;4.95;;;4.03;;
78344;SDS011;67620;51.134;6.548;2023-04-01T12:41:14;4.35;;;3.67;;
78344;SDS011;67620;51.134;6.548;2023-04-01T12:46:42;4.78;;;3.67;;
78344;SDS011;67620;51.134;6.548;2023-04-01T12:52:13;5.68;;;4.18;;
78344;SDS011;67620;51.134;6.548;2023-04-01T12:54:50;4.55;;;3.42;;
78344;SDS011;67620;51.134;6.548;2023-04-01T12:57:32;5.18;;;4.07;;
78344;SDS011;67620;51.134;6.548;2023-04-01T13:03:05;36.50;;;26.25;;
78344;SDS011;67620;51.134;6.548;2023-04-01T13:11:09;5.18;;;3.95;;
78344;SDS011;67620;51.134;6.548;2023-04-01T13:13:45;5.25;;;3.72;;
78344;SDS011;67620;51.134;6.548;2023-04-01T13:16:38;7.63;;;4.47;;
78344;SDS011;67620;51.134;6.548;2023-04-01T13:19:31;5.40;;;4.43;;
78344;SDS011;67620;51.134;6.548;2023-04-01T13:22:29;4.88;;;4.25;;
78344;SDS011;67620;51.134;6.548;2023-04-01T13:25:33;5.55;;;4.25;;
78344;SDS011;67620;51.134;6.548;2023-04-01T13:28:13;4.95;;;4.45;;
78344;SDS011;67620;51.134;6.548;2023-04-01T13:33:17;5.28;;;4.35;;
78344;SDS011;67620;51.134;6.548;2023-04-01T13:36:11;4.93;;;4.22;;
78344;SDS011;67620;51.134;6.548;2023-04-01T13:41:47;4.05;;;3.55;;
78344;SDS011;67620;51.134;6.548;2023-04-01T13:56:33;5.18;;;3.85;;
78344;SDS011;67620;51.134;6.548;2023-04-01T14:08:08;3.72;;;3.30;;
78344;SDS011;67620;51.134;6.548;2023-04-01T14:13:34;6.97;;;4.10;;
78344;SDS011;67620;51.134;6.548;2023-04-01T14:16:14;4.75;;;3.53;;
78344;SDS011;67620;51.134;6.548;2023-04-01T14:24:32;5.75;;;3.45;;
78344;SDS011;67620;51.134;6.548;2023-04-01T14:27:31;4.40;;;3.65;;
78344;SDS011;67620;51.134;6.548;2023-04-01T14:38:47;6.10;;;5.07;;
78344;SDS011;67620;51.134;6.548;2023-04-01T14:41:47;5.45;;;4.63;;
78344;SDS011;67620;51.134;6.548;2023-04-01T14:44:50;7.03;;;4.75;;
78344;SDS011;67620;51.134;6.548;2023-04-01T14:50:20;7.32;;;4.43;;
78344;SDS011;67620;51.134;6.548;2023-04-01T14:55:33;7.20;;;5.15;;
78344;SDS011;67620;51.134;6.548;2023-04-01T14:58:10;6.72;;;4.75;;
78344;SDS011;67620;51.134;6.548;2023-04-01T15:00:47;6.70;;;4.78;;
78344;SDS011;67620;51.134;6.548;2023-04-01T15:11:42;6.25;;;4.43;;
78344;SDS011;67620;51.134;6.548;2023-04-01T15:20:13;4.97;;;3.72;;
78344;SDS011;67620;51.134;6.548;2023-04-01T15:23:40;6.65;;;4.38;;
78344;SDS011;67620;51.134;6.548;2023-04-01T15:28:29;5.03;;;3.90;;
78344;SDS011;67620;51.134;6.548;2023-04-01T15:33:57;7.22;;;4.47;;
78344;SDS011;67620;51.134;6.548;2023-04-01T15:36:39;5.78;;;4.22;;
78344;SDS011;67620;51.134;6.548;2023-04-01T15:39:13;6.20;;;4.43;;
78344;SDS011;67620;51.134;6.548;2023-04-01T15:49:49;6.57;;;5.38;;
78344;SDS011;67620;51.134;6.548;2023-04-01T15:52:44;6.95;;;4.05;;
78344;SDS011;67620;51.134;6.548;2023-04-01T15:58:37;5.78;;;3.83;;
78344;SDS011;67620;51.134;6.548;2023-04-01T16:01:24;8.55;;;5.80;;
78344;SDS011;67620;51.134;6.548;2023-04-01T16:07:21;13.57;;;10.00;;
78344;SDS011;67620;51.134;6.548;2023-04-01T16:12:57;6.68;;;4.97;;
78344;SDS011;67620;51.134;6.548;2023-04-01T16:15:39;7.90;;;5.97;;
78344;SDS011;67620;51.134;6.548;2023-04-01T16:20:53;6.93;;;4.97;;
78344;SDS011;67620;51.134;6.548;2023-04-01T16:23:40;8.02;;;6.32;;
78344;SDS011;67620;51.134;6.548;2023-04-01T16:26:18;7.13;;;5.10;;
78344;SDS011;67620;51.134;6.548;2023-04-01T16:29:05;6.70;;;5.38;;
78344;SDS011;67620;51.134;6.548;2023-04-01T16:31:59;6.00;;;4.70;;
78344;SDS011;67620;51.134;6.548;2023-04-01T16:37:31;7.20;;;4.90;;
78344;SDS011;67620;51.134;6.548;2023-04-01T16:42:48;4.97;;;3.45;;
78344;SDS011;67620;51.134;6.548;2023-04-01T16:45:34;5.63;;;4.00;;
78344;SDS011;67620;51.134;6.548;2023-04-01T16:48:15;8.45;;;5.95;;
78344;SDS011;67620;51.134;6.548;2023-04-01T16:53:46;7.32;;;5.63;;
78344;SDS011;67620;51.134;6.548;2023-04-01T16:56:21;5.65;;;4.30;;
78344;SDS011;67620;51.134;6.548;2023-04-01T16:59:00;7.38;;;5.25;;
78344;SDS011;67620;51.134;6.548;2023-04-01T17:01:33;8.88;;;6.78;;
78344;SDS011;67620;51.134;6.548;2023-04-01T17:04:30;6.72;;;4.78;;
78344;SDS011;67620;51.134;6.548;2023-04-01T17:09:51;5.85;;;4.85;;
78344;SDS011;67620;51.134;6.548;2023-04-01T17:12:37;8.20;;;6.07;;
78344;SDS011;67620;51.134;6.548;2023-04-01T17:15:43;6.70;;;4.85;;
78344;SDS011;67620;51.134;6.548;2023-04-01T17:21:38;22.45;;;13.82;;
78344;SDS011;67620;51.134;6.548;2023-04-01T17:24:50;8.35;;;5.85;;
78344;SDS011;67620;51.134;6.548;2023-04-01T17:27:23;6.65;;;4.90;;
78344;SDS011;67620;51.134;6.548;2023-04-01T17:30:15;9.98;;;7.20;;
78344;SDS011;67620;51.134;6.548;2023-04-01T17:38:28;9.05;;;6.65;;
78344;SDS011;67620;51.134;6.548;2023-04-01T17:41:24;52.83;;;26.13;;
78344;SDS011;67620;51.134;6.548;2023-04-01T17:52:11;7.45;;;5.63;;
78344;SDS011;67620;51.134;6.548;2023-04-01T17:54:55;4.00;;;3.20;;
78344;SDS011;67620;51.134;6.548;2023-04-01T18:00:29;6.40;;;5.05;;
78344;SDS011;67620;51.134;6.548;2023-04-01T18:03:23;5.85;;;3.75;;
78344;SDS011;67620;51.134;6.548;2023-04-01T18:08:57;4.63;;;3.42;;
78344;SDS011;67620;51.134;6.548;2023-04-01T18:14:18;4.50;;;3.17;;
78344;SDS011;67620;51.134;6.548;2023-04-01T18:26:04;6.45;;;2.95;;
78344;SDS011;67620;51.134;6.548;2023-04-01T18:28:36;5.40;;;3.30;;
78344;SDS011;67620;51.134;6.548;2023-04-01T18:31:11;6.50;;;3.95;;
78344;SDS011;67620;51.134;6.548;2023-04-01T18:33:48;4.70;;;3.47;;
78344;SDS011;67620;51.134;6.548;2023-04-01T18:39:19;5.03;;;3.17;;
78344;SDS011;67620;51.134;6.548;2023-04-01T18:41:56;4.43;;;3.60;;
78344;SDS011;67620;51.134;6.548;2023-04-01T18:44:46;4.90;;;4.00;;
78344;SDS011;67620;51.134;6.548;2023-04-01T18:53:09;7.82;;;5.28;;
78344;SDS011;67620;51.134;6.548;2023-04-01T18:55:46;7.50;;;5.82;;
78344;SDS011;67620;51.134;6.548;2023-04-01T19:03:52;8.90;;;5.88;;
78344;SDS011;67620;51.134;6.548;2023-04-01T19:06:48;7.32;;;5.75;;
78344;SDS011;67620;51.134;6.548;2023-04-01T19:14:56;7.45;;;5.68;;
78344;SDS011;67620;51.134;6.548;2023-04-01T19:20:33;7.90;;;5.88;;
78344;SDS011;67620;51.134;6.548;2023-04-01T19:26:17;7.57;;;5.28;;
78344;SDS011;67620;51.134;6.548;2023-04-01T19:29:00;7.55;;;5.15;;
78344;SDS011;67620;51.134;6.548;2023-04-01T19:31:54;7.90;;;5.05;;
78344;SDS011;67620;51.134;6.548;2023-04-01T19:37:39;8.48;;;5.30;;
78344;SDS011;67620;51.134;6.548;2023-04-01T19:40:21;7.25;;;5.25;;
78344;SDS011;67620;51.134;6.548;2023-04-01T19:43:24;6.80;;;4.93;;
78344;SDS011;67620;51.134;6.548;2023-04-01T19:49:06;8.00;;;4.97;;
78344;SDS011;67620;51.134;6.548;2023-04-01T19:54:54;7.43;;;4.55;;
78344;SDS011;67620;51.134;6.548;2023-04-01T20:00:24;6.40;;;4.65;;
78344;SDS011;67620;51.134;6.548;2023-04-01T20:03:01;6.53;;;4.75;;
78344;SDS011;67620;51.134;6.548;2023-04-01T20:11:08;5.57;;;4.10;;
78344;SDS011;67620;51.134;6.548;2023-04-01T20:16:54;7.22;;;5.10;;
78344;SDS011;67620;51.134;6.548;2023-04-01T20:19:35;7.20;;;5.28;;
78344;SDS011;67620;51.134;6.548;2023-04-01T20:22:20;7.85;;;4.97;;
78344;SDS011;67620;51.134;6.548;2023-04-01T20:24:54;7.35;;;5.30;;
78344;SDS011;67620;51.134;6.548;2023-04-01T20:27:26;6.57;;;4.55;;
78344;SDS011;67620;51.134;6.548;2023-04-01T20:35:37;6.65;;;4.68;;
78344;SDS011;67620;51.134;6.548;2023-04-01T20:40:52;8.43;;;6.20;;
78344;SDS011;67620;51.134;6.548;2023-04-01T20:43:49;7.82;;;5.95;;
78344;SDS011;67620;51.134;6.548;2023-04-01T20:49:29;7.78;;;5.30;;
78344;SDS011;67620;51.134;6.548;2023-04-01T20:57:09;10.00;;;6.65;;
78344;SDS011;67620;51.134;6.548;2023-04-01T21:13:36;13.18;;;9.48;;
78344;SDS011;67620;51.134;6.548;2023-04-01T21:22:01;14.43;;;9.27;;
78344;SDS011;67620;51.134;6.548;2023-04-01T21:25:01;13.10;;;9.20;;
78344;SDS011;67620;51.134;6.548;2023-04-01T21:49:57;6.70;;;5.95;;
78344;SDS011;67620;51.134;6.548;2023-04-01T21:58:44;12.48;;;9.45;;
78344;SDS011;67620;51.134;6.548;2023-04-01T22:12:34;10.32;;;7.90;;
78344;SDS011;67620;51.134;6.548;2023-04-01T22:17:59;8.30;;;6.50;;
78344;SDS011;67620;51.134;6.548;2023-04-01T22:21:07;7.88;;;6.25;;
78344;SDS011;67620;51.134;6.548;2023-04-01T22:23:51;8.25;;;6.45;;
78344;SDS011;67620;51.134;6.548;2023-04-01T22:26:44;8.98;;;5.38;;
78344;SDS011;67620;51.134;6.548;2023-04-01T22:31:44;9.82;;;7.32;;
78344;SDS011;67620;51.134;6.548;2023-04-01T22:40:27;7.70;;;5.57;;
78344;SDS011;67620;51.134;6.548;2023-04-01T22:43:10;7.93;;;5.10;;
78344;SDS011;67620;51.134;6.548;2023-04-01T22:45:49;6.50;;;4.40;;
78344;SDS011;67620;51.134;6.548;2023-04-01T22:48:29;6.20;;;4.63;;
78344;SDS011;67620;51.134;6.548;2023-04-01T22:56:18;9.63;;;6.43;;
78344;SDS011;67620;51.134;6.548;2023-04-01T22:58:57;7.22;;;5.85;;
78344;SDS011;67620;51.134;6.548;2023-04-01T23:01:32;8.20;;;6.03;;
78344;SDS011;67620;51.134;6.548;2023-04-01T23:04:07;8.52;;;6.63;;
78344;SDS011;67620;51.134;6.548;2023-04-01T23:06:42;7.80;;;6.22;;
78344;SDS011;67620;51.134;6.548;2023-04-01T23:09:23;7.18;;;4.90;;
78344;SDS011;67620;51.134;6.548;2023-04-01T23:12:09;4.30;;;3.80;;
78344;SDS011;67620;51.134;6.548;2023-04-01T23:14:54;4.00;;;3.17;;
78344;SDS011;67620;51.134;6.548;2023-04-01T23:25:57;6.35;;;4.60;;
78344;SDS011;67620;51.134;6.548;2023-04-01T23:31:01;8.82;;;6.30;;
78344;SDS011;67620;51.134;6.548;2023-04-01T23:33:30;10.68;;;6.97;;
78344;SDS011;67620;51.134;6.548;2023-04-01T23:38:39;9.93;;;5.75;;
78344;SDS011;67620;51.134;6.548;2023-04-01T23:41:09;5.38;;;4.15;;
78344;SDS011;67620;51.134;6.548;2023-04-01T23:43:55;5.35;;;4.25;;
78344;SDS011;67620;51.134;6.548;2023-04-01T23:46:24;4.93;;;3.67;;
78344;SDS011;67620;51.134;6.548;2023-04-01T23:48:50;6.03;;;4.43;;
78344;SDS011;67620;51.134;6.548;2023-04-01T23:54:13;6.03;;;5.35;;
78344;SDS011;67620;51.134;6.548;2023-04-01T23:56:44;6.07;;;4.53;;
78344;SDS011;67620;51.134;6.548;2023-04-01T23:59:22;5.10;;;4.43;;
